createdAt,value
2017-11-13T00:01:48.761Z,5.30
2017-11-13T00:04:16.307Z,5.27
2017-11-13T00:06:47.236Z,4.80
2017-11-13T00:09:19.151Z,5.40
2017-11-13T00:11:52.964Z,5.87
2017-11-13T00:14:27.235Z,5.50
2017-11-13T00:16:59.225Z,4.90
2017-11-13T00:19:30.464Z,4.40
2017-11-13T00:21:59.403Z,4.87
2017-11-13T00:24:26.931Z,5.23
2017-11-13T00:26:55.235Z,5.40
2017-11-13T00:29:23.693Z,5.13
2017-11-13T00:31:51.988Z,4.70
2017-11-13T00:34:19.544Z,3.80
2017-11-13T00:36:47.084Z,4.53
2017-11-13T00:39:15.400Z,4.93
2017-11-13T00:41:42.929Z,4.90
2017-11-13T00:44:11.246Z,4.70
2017-11-13T00:46:38.767Z,4.60
2017-11-13T00:49:07.088Z,4.43
2017-11-13T00:51:34.649Z,4.93
2017-11-13T00:54:02.204Z,4.80
2017-11-13T00:56:29.737Z,5.30
2017-11-13T00:58:57.287Z,4.60
2017-11-13T01:01:24.833Z,4.83
2017-11-13T01:03:53.153Z,5.00
2017-11-13T01:06:20.697Z,4.53
2017-11-13T01:08:48.260Z,4.90
2017-11-13T01:11:15.789Z,4.80
2017-11-13T01:13:44.112Z,4.70
2017-11-13T01:16:11.636Z,5.60
2017-11-13T01:18:39.962Z,6.23
2017-11-13T01:21:07.489Z,5.17
2017-11-13T01:23:35.060Z,5.77
2017-11-13T01:26:02.588Z,5.97
2017-11-13T01:28:30.886Z,5.50
2017-11-13T01:30:58.441Z,5.40
2017-11-13T01:33:25.976Z,5.83
2017-11-13T01:35:54.303Z,4.93
2017-11-13T01:38:21.837Z,4.97
2017-11-13T01:40:49.395Z,5.70
2017-11-13T01:43:16.929Z,5.10
2017-11-13T01:45:45.261Z,4.97
2017-11-13T01:48:12.836Z,5.83
2017-11-13T01:50:40.392Z,5.53
2017-11-13T01:53:07.936Z,5.17
2017-11-13T01:55:35.492Z,5.37
2017-11-13T01:58:03.034Z,5.50
2017-11-13T02:00:30.590Z,5.43
2017-11-13T02:02:58.124Z,6.27
2017-11-13T02:05:26.443Z,6.47
2017-11-13T02:07:53.978Z,5.57
2017-11-13T02:10:21.551Z,5.70
2017-11-13T02:12:49.084Z,6.20
2017-11-13T02:15:16.648Z,5.50
2017-11-13T02:17:44.947Z,5.00
2017-11-13T02:20:12.502Z,5.20
2017-11-13T02:22:40.196Z,5.63
2017-11-13T02:25:07.758Z,5.77
2017-11-13T02:27:35.285Z,5.17
2017-11-13T02:30:02.856Z,5.70
2017-11-13T02:32:30.389Z,6.13
2017-11-13T02:34:58.687Z,5.40
2017-11-13T02:37:26.244Z,5.23
2017-11-13T02:39:53.780Z,6.37
2017-11-13T02:42:22.104Z,5.53
2017-11-13T02:44:49.627Z,6.13
2017-11-13T02:47:17.956Z,5.87
2017-11-13T02:49:45.472Z,5.60
2017-11-13T02:52:13.042Z,5.87
2017-11-13T02:54:40.580Z,5.80
2017-11-13T02:57:08.901Z,6.23
2017-11-13T02:59:36.424Z,7.33
2017-11-13T03:02:04.750Z,6.00
2017-11-13T03:04:32.300Z,6.90
2017-11-13T03:06:59.857Z,7.23
2017-11-13T03:09:27.396Z,6.50
2017-11-13T03:11:54.957Z,7.80
2017-11-13T03:14:22.493Z,6.40
2017-11-13T03:16:50.824Z,5.97
2017-11-13T03:19:18.349Z,6.93
2017-11-13T03:21:45.904Z,6.00
2017-11-13T03:24:29.170Z,6.63
2017-11-13T03:26:56.722Z,7.43
2017-11-13T03:29:24.262Z,7.93
2017-11-13T03:31:51.842Z,6.97
2017-11-13T03:34:19.386Z,8.13
2017-11-13T03:36:46.962Z,7.50
2017-11-13T03:39:14.491Z,7.67
2017-11-13T03:41:42.016Z,5.90
2017-11-13T03:44:09.577Z,6.70
2017-11-13T03:46:37.112Z,6.57
2017-11-13T03:49:04.676Z,6.53
2017-11-13T03:51:32.209Z,7.70
2017-11-13T03:53:59.767Z,7.63
2017-11-13T03:56:48.752Z,7.30
2017-11-13T03:59:17.070Z,6.77
2017-11-13T04:01:45.385Z,6.63
2017-11-13T04:04:12.931Z,6.40
2017-11-13T04:06:40.467Z,7.17
2017-11-13T04:09:08.791Z,6.30
2017-11-13T04:11:36.320Z,7.17
2017-11-13T04:14:03.878Z,6.63
2017-11-13T04:16:31.433Z,6.27
2017-11-13T04:18:59.752Z,7.30
2017-11-13T04:21:27.281Z,5.70
2017-11-13T04:23:54.844Z,6.70
2017-11-13T04:26:22.394Z,6.07
2017-11-13T04:28:50.719Z,6.30
2017-11-13T04:31:18.248Z,6.93
2017-11-13T04:33:45.805Z,6.33
2017-11-13T04:36:13.341Z,5.80
2017-11-13T04:38:41.672Z,5.83
2017-11-13T04:41:09.216Z,5.73
2017-11-13T04:43:36.768Z,5.70
2017-11-13T04:46:04.300Z,6.83
2017-11-13T04:48:31.844Z,5.40
2017-11-13T04:50:59.411Z,5.60
2017-11-13T04:53:27.717Z,6.07
2017-11-13T04:55:55.280Z,6.43
2017-11-13T04:58:22.804Z,5.93
2017-11-13T05:00:50.366Z,6.43
2017-11-13T05:03:18.668Z,6.30
2017-11-13T05:05:46.232Z,6.20
2017-11-13T05:08:13.769Z,6.20
2017-11-13T05:10:42.080Z,5.97
2017-11-13T05:13:09.631Z,5.63
2017-11-13T05:15:37.188Z,6.87
2017-11-13T05:18:04.716Z,6.13
2017-11-13T05:20:32.276Z,4.93
2017-11-13T05:22:59.812Z,6.53
2017-11-13T05:25:27.390Z,5.87
2017-11-13T05:27:54.920Z,6.27
2017-11-13T05:30:22.475Z,6.27
2017-11-13T05:32:50.010Z,5.80
2017-11-13T05:35:17.563Z,6.10
2017-11-13T05:37:45.092Z,6.87
2017-11-13T05:40:12.650Z,6.23
2017-11-13T05:42:40.176Z,6.07
2017-11-13T05:45:07.728Z,6.00
2017-11-13T05:47:35.263Z,6.57
2017-11-13T05:50:02.856Z,6.90
2017-11-13T05:52:30.391Z,6.40
2017-11-13T05:54:57.920Z,6.70
2017-11-13T05:57:26.231Z,6.50
2017-11-13T05:59:53.756Z,6.70
2017-11-13T06:02:22.076Z,6.87
2017-11-13T06:04:49.608Z,6.93
2017-11-13T06:07:17.160Z,6.40
2017-11-13T06:09:45.461Z,6.50
2017-11-13T06:12:13.023Z,6.87
2017-11-13T06:14:40.563Z,7.00
2017-11-13T06:17:08.130Z,6.17
2017-11-13T06:19:35.761Z,7.40
2017-11-13T06:22:03.332Z,7.23
2017-11-13T06:24:31.629Z,7.70
2017-11-13T06:26:59.718Z,8.00
2017-11-13T06:29:27.340Z,6.37
2017-11-13T06:31:55.716Z,6.73
2017-11-13T06:34:24.047Z,5.70
2017-11-13T06:36:51.600Z,6.77
2017-11-13T06:39:19.133Z,5.77
2017-11-13T06:41:46.837Z,6.50
2017-11-13T06:44:14.379Z,6.90
2017-11-13T06:46:41.938Z,6.90
2017-11-13T06:49:09.467Z,6.70
2017-11-13T06:51:37.791Z,6.13
2017-11-13T06:54:05.334Z,7.10
2017-11-13T06:56:32.873Z,7.13
2017-11-13T06:59:00.432Z,6.33
2017-11-13T07:01:27.973Z,7.10
2017-11-13T07:03:56.295Z,6.67
2017-11-13T07:06:23.832Z,7.27
2017-11-13T07:08:51.397Z,6.93
2017-11-13T07:11:18.944Z,5.97
2017-11-13T07:13:46.511Z,5.73
2017-11-13T07:16:14.046Z,5.27
2017-11-13T07:18:41.598Z,6.20
2017-11-13T07:21:09.128Z,5.77
2017-11-13T07:23:36.679Z,4.87
2017-11-13T07:26:04.213Z,5.03
2017-11-13T07:28:31.773Z,5.00
2017-11-13T07:30:59.315Z,4.73
2017-11-13T07:33:27.639Z,4.93
2017-11-13T07:35:55.172Z,4.90
2017-11-13T07:38:22.733Z,5.73
2017-11-13T07:40:50.277Z,4.30
2017-11-13T07:43:18.594Z,6.10
2017-11-13T07:45:46.122Z,4.23
2017-11-13T07:48:13.679Z,4.60
2017-11-13T07:50:41.224Z,4.63
2017-11-13T07:53:09.537Z,3.80
2017-11-13T07:55:37.837Z,4.27
2017-11-13T07:58:05.370Z,3.73
2017-11-13T08:00:32.924Z,4.00
2017-11-13T08:03:00.458Z,4.20
2017-11-13T08:05:28.775Z,3.83
2017-11-13T08:07:56.310Z,4.23
2017-11-13T08:10:23.855Z,3.10
2017-11-13T08:12:52.193Z,3.33
2017-11-13T08:15:19.770Z,3.60
2017-11-13T08:17:47.305Z,3.33
2017-11-13T08:20:14.857Z,3.43
2017-11-13T08:22:42.393Z,3.83
2017-11-13T08:25:09.951Z,3.07
2017-11-13T08:27:37.492Z,3.20
2017-11-13T08:30:05.053Z,4.10
2017-11-13T08:32:33.353Z,3.10
2017-11-13T08:35:00.909Z,3.10
2017-11-13T08:37:28.436Z,3.40
2017-11-13T08:39:56.776Z,4.17
2017-11-13T08:42:24.305Z,3.87
2017-11-13T08:44:51.889Z,3.90
2017-11-13T08:47:19.423Z,4.20
2017-11-13T08:49:46.981Z,3.97
2017-11-13T08:52:14.512Z,4.00
2017-11-13T08:54:42.849Z,4.10
2017-11-13T08:57:10.385Z,3.20
2017-11-13T08:59:38.052Z,4.80
2017-11-13T09:02:05.580Z,4.63
2017-11-13T09:04:33.876Z,3.93
2017-11-13T09:07:01.435Z,3.97
2017-11-13T09:09:28.968Z,4.20
2017-11-13T09:11:57.295Z,4.60
2017-11-13T09:14:24.827Z,3.23
2017-11-13T09:16:53.148Z,3.23
2017-11-13T09:19:20.680Z,3.43
2017-11-13T09:21:48.228Z,3.37
2017-11-13T09:24:15.796Z,2.90
2017-11-13T09:26:43.333Z,3.30
2017-11-13T09:29:11.632Z,3.77
2017-11-13T09:31:39.173Z,2.90
2017-11-13T09:34:07.468Z,3.03
2017-11-13T09:36:35.023Z,2.97
2017-11-13T09:39:02.564Z,2.53
2017-11-13T09:41:30.890Z,2.80
2017-11-13T09:43:58.425Z,2.77
2017-11-13T09:46:25.984Z,2.90
2017-11-13T09:48:53.512Z,3.07
2017-11-13T09:51:21.841Z,2.40
2017-11-13T09:53:49.373Z,3.00
2017-11-13T09:56:16.927Z,2.73
2017-11-13T09:58:44.467Z,2.87
2017-11-13T10:01:12.794Z,2.63
2017-11-13T10:03:40.324Z,3.10
2017-11-13T10:06:07.910Z,2.53
2017-11-13T10:08:35.435Z,2.50
2017-11-13T10:11:03.730Z,2.80
2017-11-13T10:13:31.277Z,2.40
2017-11-13T10:15:59.572Z,2.50
2017-11-13T10:18:27.127Z,4.20
2017-11-13T10:20:54.656Z,3.27
2017-11-13T10:23:22.984Z,3.20
2017-11-13T10:25:50.521Z,2.87
2017-11-13T10:28:18.069Z,2.80
2017-11-13T10:30:46.354Z,3.10
2017-11-13T10:33:13.912Z,2.90
2017-11-13T10:35:41.455Z,2.10
2017-11-13T10:38:09.772Z,2.17
2017-11-13T10:40:37.306Z,2.67
2017-11-13T10:43:04.860Z,2.70
2017-11-13T10:45:33.149Z,2.87
2017-11-13T10:48:00.697Z,2.87
2017-11-13T10:50:28.240Z,2.50
2017-11-13T10:52:55.805Z,2.73
2017-11-13T10:55:24.109Z,3.03
2017-11-13T10:57:51.665Z,2.57
2017-11-13T11:00:19.197Z,2.53
2017-11-13T11:02:47.516Z,2.87
2017-11-13T11:05:15.044Z,2.33
2017-11-13T11:07:43.365Z,2.60
2017-11-13T11:10:10.903Z,2.40
2017-11-13T11:12:38.433Z,4.43
2017-11-13T11:15:10.212Z,2.80
2017-11-13T11:17:43.425Z,2.73
2017-11-13T11:20:13.618Z,2.67
2017-11-13T11:22:44.844Z,2.60
2017-11-13T11:25:12.400Z,3.33
2017-11-13T11:27:39.932Z,2.77
2017-11-13T11:30:13.067Z,2.90
2017-11-13T11:32:52.243Z,3.00
2017-11-13T11:35:19.803Z,4.33
2017-11-13T11:38:04.017Z,3.10
2017-11-13T11:40:48.177Z,3.40
2017-11-13T11:43:15.707Z,3.27
2017-11-13T11:45:47.522Z,3.20
2017-11-13T11:48:20.824Z,3.67
2017-11-13T11:50:48.381Z,3.10
2017-11-13T11:53:15.912Z,3.80
2017-11-13T11:58:48.557Z,3.37
2017-11-13T12:01:16.081Z,3.40
2017-11-13T12:03:43.610Z,3.57
2017-11-13T12:06:11.924Z,3.43
2017-11-13T12:08:39.452Z,3.70
2017-11-13T12:11:07.773Z,3.43
2017-11-13T12:13:35.316Z,2.80
2017-11-13T12:16:02.876Z,3.20
2017-11-13T12:18:30.408Z,4.07
2017-11-13T12:20:58.724Z,3.03
2017-11-13T12:23:26.263Z,3.47
2017-11-13T12:25:53.818Z,3.40
2017-11-13T12:28:21.351Z,3.53
2017-11-13T12:30:49.683Z,3.80
2017-11-13T12:33:17.204Z,3.03
2017-11-13T12:35:45.532Z,3.43
2017-11-13T12:38:13.064Z,2.70
2017-11-13T12:40:40.616Z,3.50
2017-11-13T12:43:08.139Z,2.83
2017-11-13T12:45:35.702Z,3.70
2017-11-13T12:48:04.008Z,3.47
2017-11-13T12:50:31.576Z,4.63
2017-11-13T12:52:59.104Z,3.53
2017-11-13T12:55:27.400Z,2.77
2017-11-13T12:57:54.952Z,2.73
2017-11-13T13:00:23.248Z,2.83
2017-11-13T13:02:50.802Z,2.93
2017-11-13T13:05:18.331Z,3.23
2017-11-13T13:07:46.658Z,3.80
2017-11-13T13:10:14.184Z,3.90
2017-11-13T13:12:42.513Z,3.83
2017-11-13T13:15:10.063Z,3.27
2017-11-13T13:17:37.629Z,3.60
2017-11-13T13:20:05.164Z,3.40
2017-11-13T13:22:32.716Z,3.27
2017-11-13T13:25:00.248Z,3.50
2017-11-13T13:27:28.573Z,2.83
2017-11-13T13:29:56.099Z,4.03
2017-11-13T13:32:24.430Z,3.03
2017-11-13T13:34:51.976Z,3.40
2017-11-13T13:37:19.531Z,3.50
2017-11-13T13:39:47.054Z,2.97
2017-11-13T13:42:20.157Z,2.80
2017-11-13T13:44:47.696Z,3.30
2017-11-13T13:47:16.017Z,2.80
2017-11-13T13:49:43.547Z,2.60
2017-11-13T13:52:11.080Z,3.20
2017-11-13T13:54:38.642Z,3.03
2017-11-13T13:57:06.172Z,2.23
2017-11-13T13:59:33.736Z,2.37
2017-11-13T14:02:01.273Z,3.10
2017-11-13T14:04:28.835Z,3.07
2017-11-13T14:06:56.373Z,2.30
2017-11-13T14:09:23.920Z,2.40
2017-11-13T14:11:51.461Z,2.43
2017-11-13T14:14:19.019Z,2.70
2017-11-13T14:16:46.548Z,2.67
2017-11-13T14:19:14.110Z,2.73
2017-11-13T14:21:41.645Z,2.83
2017-11-13T14:24:09.200Z,2.33
2017-11-13T14:26:36.730Z,3.03
2017-11-13T14:29:05.040Z,2.80
2017-11-13T14:31:32.577Z,2.80
2017-11-13T14:34:00.133Z,2.53
2017-11-13T14:36:31.691Z,2.67
2017-11-13T14:38:59.243Z,3.10
2017-11-13T14:41:27.575Z,2.83
2017-11-13T14:43:55.129Z,3.17
2017-11-13T14:46:22.655Z,3.57
2017-11-13T14:48:50.188Z,2.20
2017-11-13T14:51:18.500Z,3.67
2017-11-13T14:53:46.049Z,2.60
2017-11-13T14:56:13.608Z,2.13
2017-11-13T14:58:41.144Z,3.27
2017-11-13T15:01:09.480Z,2.93
2017-11-13T15:03:37.010Z,2.10
2017-11-13T15:06:04.568Z,3.30
2017-11-13T15:08:32.097Z,2.50
2017-11-13T15:11:00.421Z,2.87
2017-11-13T15:13:27.957Z,3.83
2017-11-13T15:15:55.508Z,2.80
2017-11-13T15:18:23.803Z,3.30
2017-11-13T15:20:51.356Z,3.47
2017-11-13T15:23:18.894Z,3.07
2017-11-13T15:25:47.220Z,2.87
2017-11-13T15:28:14.753Z,2.60
2017-11-13T15:30:42.314Z,2.87
2017-11-13T15:33:09.848Z,2.73
2017-11-13T15:35:38.163Z,2.87
2017-11-13T15:38:05.690Z,2.83
2017-11-13T15:40:34.066Z,3.13
2017-11-13T15:43:02.370Z,2.90
2017-11-13T15:45:29.899Z,3.20
2017-11-13T15:47:57.456Z,2.63
2017-11-13T15:50:24.996Z,3.33
2017-11-13T15:52:52.552Z,2.70
2017-11-13T15:55:20.080Z,3.00
2017-11-13T15:57:47.631Z,2.87
2017-11-13T16:00:15.166Z,3.40
2017-11-13T16:02:43.491Z,2.80
2017-11-13T16:05:11.027Z,2.83
2017-11-13T16:07:38.595Z,3.43
2017-11-13T16:10:06.119Z,3.77
2017-11-13T16:12:34.448Z,3.60
2017-11-13T16:15:01.985Z,2.60
2017-11-13T16:17:29.546Z,2.60
2017-11-13T16:19:57.092Z,3.10
2017-11-13T16:22:24.647Z,2.80
2017-11-13T16:24:52.939Z,2.97
2017-11-13T16:27:20.491Z,2.70
2017-11-13T16:29:48.024Z,2.50
2017-11-13T16:32:15.572Z,2.90
2017-11-13T16:34:43.112Z,3.20
2017-11-13T16:37:10.674Z,3.17
2017-11-13T16:39:38.221Z,3.30
2017-11-13T16:42:05.797Z,2.90
2017-11-13T16:44:33.329Z,3.07
2017-11-13T16:47:00.864Z,2.83
2017-11-13T16:49:29.171Z,4.67
2017-11-13T16:51:56.696Z,3.20
2017-11-13T16:54:25.007Z,2.90
2017-11-13T16:56:52.535Z,3.70
2017-11-13T16:59:20.099Z,3.10
2017-11-13T17:01:47.644Z,2.87
2017-11-13T17:04:15.964Z,3.40
2017-11-13T17:06:43.500Z,2.67
2017-11-13T17:09:11.068Z,2.63
2017-11-13T17:11:38.608Z,2.90
2017-11-13T17:14:06.934Z,3.63
2017-11-13T17:16:34.460Z,3.77
2017-11-13T17:19:02.010Z,3.10
2017-11-13T17:21:30.300Z,3.13
2017-11-13T17:23:57.849Z,2.60
2017-11-13T17:26:25.395Z,3.00
2017-11-13T17:28:53.715Z,3.00
2017-11-13T17:31:21.249Z,3.13
2017-11-13T17:33:48.833Z,3.20
2017-11-13T17:36:16.365Z,3.40
2017-11-13T17:38:43.901Z,2.67
2017-11-13T17:41:12.220Z,3.43
2017-11-13T17:43:39.757Z,4.07
2017-11-13T17:46:08.081Z,3.10
2017-11-13T17:48:36.380Z,3.30
2017-11-13T17:51:03.934Z,3.03
2017-11-13T17:53:31.472Z,3.50
2017-11-13T17:55:59.032Z,2.97
2017-11-13T17:58:26.561Z,3.07
2017-11-13T18:00:54.124Z,3.20
2017-11-13T18:03:21.651Z,3.00
2017-11-13T18:05:49.978Z,3.60
2017-11-13T18:08:17.511Z,3.80
2017-11-13T18:10:45.069Z,3.00
2017-11-13T18:13:12.602Z,3.03
2017-11-13T18:15:40.163Z,3.23
2017-11-13T18:18:07.687Z,3.00
2017-11-13T18:20:35.242Z,3.63
2017-11-13T18:23:02.834Z,3.27
2017-11-13T18:25:30.385Z,3.30
2017-11-13T18:27:57.928Z,2.90
2017-11-13T18:30:25.528Z,3.10
2017-11-13T18:32:53.831Z,3.90
2017-11-13T18:35:21.364Z,3.20
2017-11-13T18:37:49.675Z,3.43
2017-11-13T18:40:17.213Z,3.20
2017-11-13T18:42:45.533Z,2.70
2017-11-13T18:45:13.085Z,2.90
2017-11-13T18:47:40.631Z,3.00
2017-11-13T18:50:08.160Z,3.30
2017-11-13T18:52:36.486Z,3.17
2017-11-13T18:55:04.016Z,2.90
2017-11-13T18:57:31.577Z,3.77
2017-11-13T18:59:59.112Z,3.20
2017-11-13T19:02:27.440Z,4.50
2017-11-13T19:04:54.987Z,5.00
2017-11-13T19:07:22.548Z,4.33
2017-11-13T19:09:50.080Z,3.07
2017-11-13T19:12:18.412Z,4.63
2017-11-13T19:14:45.940Z,4.57
2017-11-13T19:17:13.500Z,3.27
2017-11-13T19:19:41.030Z,5.53
2017-11-13T19:22:09.356Z,4.73
2017-11-13T19:24:36.897Z,3.50
2017-11-13T19:27:04.453Z,6.00
2017-11-13T19:29:31.995Z,3.83
2017-11-13T19:32:00.319Z,4.57
2017-11-13T19:34:27.839Z,5.20
2017-11-13T19:36:55.388Z,4.07
2017-11-13T19:39:23.716Z,3.60
2017-11-13T19:41:51.260Z,6.60
2017-11-13T19:44:19.053Z,3.90
2017-11-13T19:46:46.596Z,4.57
2017-11-13T19:49:14.169Z,5.70
2017-11-13T19:51:41.715Z,4.60
2017-11-13T19:54:09.328Z,4.37
2017-11-13T19:56:37.677Z,5.83
2017-11-13T19:59:05.236Z,5.20
2017-11-13T20:01:32.783Z,6.07
2017-11-13T20:04:00.341Z,6.50
2017-11-13T20:06:27.876Z,5.93
2017-11-13T20:08:55.432Z,6.40
2017-11-13T20:11:22.967Z,6.17
2017-11-13T20:13:51.364Z,5.93
2017-11-13T20:16:18.905Z,8.20
2017-11-13T20:18:47.252Z,6.47
2017-11-13T20:21:14.807Z,5.57
2017-11-13T20:23:42.374Z,6.93
2017-11-13T20:26:09.915Z,5.87
2017-11-13T20:28:38.239Z,6.20
2017-11-13T20:31:06.535Z,7.27
2017-11-13T20:33:34.107Z,7.10
2017-11-13T20:36:01.652Z,5.73
2017-11-13T20:38:29.263Z,6.83
2017-11-13T20:40:56.825Z,5.10
2017-11-13T20:43:24.357Z,5.70
2017-11-13T20:45:52.226Z,6.47
2017-11-13T20:48:19.830Z,6.37
2017-11-13T20:50:47.395Z,6.77
2017-11-13T20:53:15.704Z,6.60
2017-11-13T20:55:43.260Z,6.20
2017-11-13T20:58:10.964Z,6.77
2017-11-13T21:00:38.624Z,6.93
2017-11-13T21:03:06.164Z,4.80
2017-11-13T21:05:33.964Z,8.07
2017-11-13T21:08:01.489Z,5.10
2017-11-13T21:10:29.089Z,5.73
2017-11-13T21:12:56.922Z,6.83
2017-11-13T21:15:24.498Z,6.37
2017-11-13T21:17:52.037Z,6.90
2017-11-13T21:20:19.607Z,8.27
2017-11-13T21:22:47.142Z,6.93
2017-11-13T21:25:14.703Z,6.27
2017-11-13T21:27:42.245Z,6.70
2017-11-13T21:30:10.577Z,6.00
2017-11-13T21:32:38.116Z,6.00
2017-11-13T21:35:05.676Z,6.97
2017-11-13T21:37:33.217Z,5.80
2017-11-13T21:40:00.792Z,5.30
2017-11-13T21:42:28.330Z,6.13
2017-11-13T21:44:55.887Z,6.90
2017-11-13T21:47:23.440Z,5.53
2017-11-13T21:49:51.752Z,5.67
2017-11-13T21:52:19.316Z,5.60
2017-11-13T21:54:46.847Z,5.30
2017-11-13T21:57:14.406Z,5.53
2017-11-13T21:59:41.948Z,5.40
2017-11-13T22:02:10.275Z,6.00
2017-11-13T22:04:37.805Z,6.27
2017-11-13T22:07:05.371Z,6.83
2017-11-13T22:09:32.911Z,6.73
2017-11-13T22:12:01.235Z,5.17
2017-11-13T22:14:28.767Z,6.20
2017-11-13T22:16:56.324Z,4.97
2017-11-13T22:19:23.860Z,5.80
2017-11-13T22:21:52.198Z,5.77
2017-11-13T22:24:19.733Z,4.80
2017-11-13T22:26:47.293Z,6.43
2017-11-13T22:29:14.838Z,4.93
2017-11-13T22:51:40.929Z,6.30
2017-11-13T22:54:08.480Z,8.30
2017-11-13T22:56:36.008Z,7.37
2017-11-13T22:59:04.339Z,7.27
2017-11-13T23:01:31.881Z,7.00
2017-11-13T23:03:59.434Z,5.60
2017-11-13T23:06:26.974Z,7.10
2017-11-13T23:08:54.541Z,6.50
2017-11-13T23:11:22.077Z,5.73
2017-11-13T23:13:50.392Z,6.07
2017-11-13T23:16:17.922Z,5.47
2017-11-13T23:18:46.235Z,5.33
2017-11-13T23:21:13.768Z,4.57
2017-11-13T23:23:41.324Z,5.60
2017-11-13T23:26:08.865Z,5.80
2017-11-13T23:28:37.193Z,5.40
2017-11-13T23:31:04.733Z,6.37
2017-11-13T23:33:32.311Z,5.83
2017-11-13T23:35:59.852Z,6.80
2017-11-13T23:38:27.414Z,6.50
2017-11-13T23:40:54.945Z,5.73
2017-11-13T23:43:23.280Z,7.27
2017-11-13T23:45:50.813Z,7.20
2017-11-13T23:48:18.378Z,7.87
2017-11-13T23:50:45.912Z,6.70
2017-11-13T23:53:13.473Z,7.90
2017-11-13T23:55:41.011Z,8.60
2017-11-13T23:58:08.551Z,7.33
